createdAt,value
2022-07-28T00:00:14.386Z,1015.98
2022-07-28T00:00:38.708Z,1016.08
2022-07-28T00:01:09.653Z,1016.08
2022-07-28T00:01:38.020Z,1015.98
2022-07-28T00:02:11.837Z,1015.98
2022-07-28T00:02:42.416Z,1016.08
2022-07-28T00:03:10.864Z,1016.08
2022-07-28T00:03:41.551Z,1016.08
2022-07-28T00:04:13.047Z,1016.08
2022-07-28T00:04:43.933Z,1016.08
2022-07-28T00:05:16.352Z,1016.08
2022-07-28T00:05:50.129Z,1016.08
2022-07-28T00:06:17.347Z,1016.08
2022-07-28T00:06:47.822Z,1016.08
2022-07-28T00:07:18.866Z,1016.19
2022-07-28T00:07:49.862Z,1016.19
2022-07-28T00:08:23.813Z,1015.98
2022-07-28T00:08:51.746Z,1015.98
2022-07-28T00:09:22.905Z,1016.08
2022-07-28T00:10:00.737Z,1016.08
2022-07-28T00:10:27.033Z,1016.29
2022-07-28T00:10:55.907Z,1016.29
2022-07-28T00:11:26.834Z,1016.08
2022-07-28T00:11:57.507Z,1016.08
2022-07-28T00:12:28.550Z,1015.92
2022-07-28T00:12:59.807Z,1015.92
2022-07-28T00:13:31.567Z,1015.98
2022-07-28T00:14:02.028Z,1015.98
2022-07-28T00:14:33.173Z,1015.81
2022-07-28T00:15:04.551Z,1015.81
2022-07-28T00:15:34.613Z,1016.08
2022-07-28T00:16:08.657Z,1016.08
2022-07-28T00:16:36.872Z,1016.08
2022-07-28T00:17:08.021Z,1016.08
2022-07-28T00:17:38.774Z,1016.29
2022-07-28T00:18:09.783Z,1016.29
2022-07-28T00:18:40.788Z,1016.08
2022-07-28T00:19:11.751Z,1016.08
2022-07-28T00:19:42.813Z,1015.98
2022-07-28T00:20:14.381Z,1015.98
2022-07-28T00:20:44.981Z,1015.92
2022-07-28T00:21:15.982Z,1016.19
2022-07-28T00:21:46.712Z,1016.19
2022-07-28T00:22:18.434Z,1016.08
2022-07-28T00:22:48.813Z,1016.08
2022-07-28T00:23:20.701Z,1016.29
2022-07-28T00:23:50.770Z,1016.29
2022-07-28T00:24:21.947Z,1016.19
2022-07-28T00:24:52.542Z,1016.19
2022-07-28T00:25:24.269Z,1016.08
2022-07-28T00:25:54.831Z,1016.08
2022-07-28T00:26:25.907Z,1016.08
2022-07-28T00:26:56.984Z,1016.08
2022-07-28T00:27:27.806Z,1015.92
2022-07-28T00:27:58.863Z,1015.92
2022-07-28T00:28:29.613Z,1015.98
2022-07-28T00:29:00.772Z,1015.98
2022-07-28T00:29:49.917Z,1015.81
2022-07-28T00:30:06.165Z,1015.81
2022-07-28T00:30:33.623Z,1015.98
2022-07-28T00:31:05.265Z,1015.98
2022-07-28T00:31:36.444Z,1015.98
2022-07-28T00:32:09.600Z,1015.98
2022-07-28T00:32:37.865Z,1015.92
2022-07-28T00:33:08.991Z,1015.92
2022-07-28T00:33:39.822Z,1016.19
2022-07-28T00:34:11.342Z,1016.19
2022-07-28T00:34:41.883Z,1015.98
2022-07-28T00:35:13.141Z,1015.98
2022-07-28T00:35:43.752Z,1015.92
2022-07-28T00:36:14.991Z,1015.92
2022-07-28T00:36:49.117Z,1015.92
2022-07-28T00:37:19.790Z,1015.98
2022-07-28T00:37:47.786Z,1015.98
2022-07-28T00:38:18.853Z,1015.92
2022-07-28T00:38:49.786Z,1015.92
2022-07-28T00:39:20.854Z,1015.98
2022-07-28T00:39:51.772Z,1015.98
2022-07-28T00:40:23.602Z,1015.98
2022-07-28T00:40:53.874Z,1015.98
2022-07-28T00:41:24.991Z,1015.81
2022-07-28T00:41:56.014Z,1015.81
2022-07-28T00:42:27.062Z,1015.92
2022-07-28T00:42:59.054Z,1015.92
2022-07-28T00:43:28.989Z,1015.98
2022-07-28T00:44:00.229Z,1015.98
2022-07-28T00:44:31.032Z,1015.92
2022-07-28T00:45:02.532Z,1015.92
2022-07-28T00:45:32.992Z,1015.92
2022-07-28T00:46:03.703Z,1015.92
2022-07-28T00:46:35.303Z,1015.92
2022-07-28T00:47:06.330Z,1015.92
2022-07-28T00:47:37.028Z,1015.61
2022-07-28T00:48:08.060Z,1015.61
2022-07-28T00:48:39.565Z,1015.81
2022-07-28T00:49:10.265Z,1015.81
2022-07-28T00:49:41.307Z,1015.71
2022-07-28T00:50:12.554Z,1015.71
2022-07-28T00:50:43.262Z,1015.81
2022-07-28T00:51:13.666Z,1015.81
2022-07-28T00:51:45.631Z,1015.92
2022-07-28T00:52:15.708Z,1015.71
2022-07-28T00:52:48.225Z,1015.71
2022-07-28T00:53:17.869Z,1015.61
2022-07-28T00:53:49.933Z,1015.61
2022-07-28T00:54:23.074Z,1015.92
2022-07-28T00:54:51.622Z,1015.92
2022-07-28T00:55:22.306Z,1015.71
2022-07-28T00:56:03.313Z,1015.71
2022-07-28T00:56:26.067Z,1015.81
2022-07-28T00:56:55.188Z,1015.81
2022-07-28T00:57:28.993Z,1015.61
2022-07-28T00:57:57.105Z,1015.61
2022-07-28T00:58:28.062Z,1015.61
2022-07-28T00:59:00.855Z,1015.61
2022-07-28T00:59:30.012Z,1015.71
2022-07-28T01:00:01.779Z,1015.71
2022-07-28T01:00:31.809Z,1015.51
2022-07-28T01:01:03.096Z,1015.51
2022-07-28T01:01:34.047Z,1015.61
2022-07-28T01:02:05.474Z,1015.61
2022-07-28T01:02:36.248Z,1015.71
2022-07-28T01:03:07.005Z,1015.71
2022-07-28T01:03:37.946Z,1015.61
2022-07-28T01:04:09.026Z,1015.61
2022-07-28T01:04:42.946Z,1015.51
2022-07-28T01:05:11.408Z,1015.51
2022-07-28T01:05:43.353Z,1015.71
2022-07-28T01:06:13.062Z,1015.71
2022-07-28T01:06:43.947Z,1015.41
2022-07-28T01:07:17.878Z,1015.61
2022-07-28T01:07:47.055Z,1015.61
2022-07-28T01:08:19.104Z,1015.61
2022-07-28T01:08:48.108Z,1015.61
2022-07-28T01:09:21.831Z,1015.61
2022-07-28T01:09:52.912Z,1015.61
2022-07-28T01:10:21.382Z,1015.51
2022-07-28T01:10:52.103Z,1015.51
2022-07-28T01:11:23.314Z,1015.41
2022-07-28T01:11:59.807Z,1015.41
2022-07-28T01:12:25.161Z,1015.31
2022-07-28T01:12:55.778Z,1015.31
2022-07-28T01:13:30.006Z,1015.41
2022-07-28T01:13:57.783Z,1015.41
2022-07-28T01:14:28.986Z,1015.61
2022-07-28T01:14:59.773Z,1015.61
2022-07-28T01:15:31.790Z,1015.51
2022-07-28T01:16:01.993Z,1015.51
2022-07-28T01:16:33.306Z,1015.61
2022-07-28T01:17:07.061Z,1015.61
2022-07-28T01:17:35.031Z,1015.51
2022-07-28T01:18:06.185Z,1015.51
2022-07-28T01:18:37.141Z,1015.31
2022-07-28T01:19:08.176Z,1015.31
2022-07-28T01:19:39.461Z,1015.61
2022-07-28T01:20:10.231Z,1015.61
2022-07-28T01:20:41.173Z,1015.41
2022-07-28T01:21:11.790Z,1015.41
2022-07-28T01:21:44.662Z,1015.41
2022-07-28T01:22:13.813Z,1015.41
2022-07-28T01:22:44.870Z,1015.51
2022-07-28T01:23:16.189Z,1015.20
2022-07-28T01:23:46.948Z,1015.20
2022-07-28T01:24:18.194Z,1015.41
2022-07-28T01:24:49.072Z,1015.41
2022-07-28T01:25:22.256Z,1015.20
2022-07-28T01:25:50.992Z,1015.20
2022-07-28T01:26:23.297Z,1015.31
2022-07-28T01:26:53.223Z,1015.31
2022-07-28T01:27:24.146Z,1015.61
2022-07-28T01:27:55.179Z,1015.61
2022-07-28T01:28:26.215Z,1015.71
2022-07-28T01:28:59.631Z,1015.71
2022-07-28T01:29:28.128Z,1015.31
2022-07-28T01:29:59.145Z,1015.31
2022-07-28T01:30:30.783Z,1015.31
2022-07-28T01:31:01.280Z,1015.31
2022-07-28T01:31:32.305Z,1015.31
2022-07-28T01:32:03.221Z,1015.31
2022-07-28T01:32:34.106Z,1015.31
2022-07-28T01:33:07.663Z,1015.31
2022-07-28T01:33:36.165Z,1015.31
2022-07-28T01:34:07.119Z,1015.31
2022-07-28T01:34:38.063Z,1015.31
2022-07-28T01:35:09.377Z,1015.31
2022-07-28T01:35:40.093Z,1015.41
2022-07-28T01:36:11.461Z,1015.41
2022-07-28T01:36:42.056Z,1015.31
2022-07-28T01:37:13.067Z,1015.31
2022-07-28T01:37:44.214Z,1015.20
2022-07-28T01:38:15.244Z,1015.31
2022-07-28T01:38:45.792Z,1015.31
2022-07-28T01:39:17.264Z,1015.41
2022-07-28T01:39:48.429Z,1015.41
2022-07-28T01:40:19.678Z,1015.41
2022-07-28T01:40:50.386Z,1015.41
2022-07-28T01:41:21.062Z,1015.31
2022-07-28T01:41:52.065Z,1015.31
2022-07-28T01:42:23.152Z,1015.31
2022-07-28T01:42:54.022Z,1015.31
2022-07-28T01:43:25.226Z,1015.41
2022-07-28T01:43:56.262Z,1015.41
2022-07-28T01:44:27.104Z,1015.31
2022-07-28T01:45:00.149Z,1015.31
2022-07-28T01:45:33.149Z,1015.41
2022-07-28T01:46:00.216Z,1015.41
2022-07-28T01:46:31.280Z,1015.41
2022-07-28T01:47:02.124Z,1015.41
2022-07-28T01:47:33.221Z,1015.51
2022-07-28T01:48:04.269Z,1015.51
2022-07-28T01:48:35.251Z,1015.20
2022-07-28T01:49:06.313Z,1015.20
2022-07-28T01:49:37.153Z,1015.41
2022-07-28T01:50:08.472Z,1015.41
2022-07-28T01:50:39.148Z,1015.20
2022-07-28T01:51:10.851Z,1015.20
2022-07-28T01:51:41.253Z,1015.31
2022-07-28T01:52:11.894Z,1015.31
2022-07-28T01:52:43.262Z,1015.10
2022-07-28T01:53:22.812Z,1015.31
2022-07-28T01:53:45.264Z,1015.31
2022-07-28T01:54:16.565Z,1015.10
2022-07-28T01:54:47.191Z,1015.10
2022-07-28T01:55:18.335Z,1015.31
2022-07-28T01:55:48.901Z,1015.31
2022-07-28T01:56:20.311Z,1015.41
2022-07-28T01:56:58.153Z,1015.41
2022-07-28T01:57:22.112Z,1015.20
2022-07-28T01:57:53.747Z,1015.20
2022-07-28T01:58:24.294Z,1015.41
2022-07-28T01:58:55.233Z,1015.41
2022-07-28T01:59:26.195Z,1015.20
2022-07-28T01:59:59.872Z,1015.20
2022-07-28T02:00:29.238Z,1015.20
2022-07-28T02:00:59.310Z,1015.20
2022-07-28T02:01:30.213Z,1015.10
2022-07-28T02:02:04.356Z,1015.10
2022-07-28T02:02:31.938Z,1015.41
2022-07-28T02:03:03.176Z,1015.41
2022-07-28T02:03:34.187Z,1015.31
2022-07-28T02:04:05.173Z,1015.31
2022-07-28T02:04:37.765Z,1015.20
2022-07-28T02:05:07.440Z,1015.20
2022-07-28T02:05:38.532Z,1015.31
2022-07-28T02:06:09.093Z,1015.31
2022-07-28T02:06:40.142Z,1015.20
2022-07-28T02:07:11.213Z,1015.20
2022-07-28T02:07:45.306Z,1015.31
2022-07-28T02:08:13.292Z,1015.31
2022-07-28T02:08:44.232Z,1015.20
2022-07-28T02:09:15.022Z,1015.31
2022-07-28T02:09:46.113Z,1015.31
2022-07-28T02:10:17.611Z,1015.31
2022-07-28T02:10:48.817Z,1015.31
2022-07-28T02:11:20.429Z,1015.31
2022-07-28T02:11:50.431Z,1015.31
2022-07-28T02:12:21.507Z,1015.20
2022-07-28T02:12:52.417Z,1015.20
2022-07-28T02:13:23.421Z,1015.31
2022-07-28T02:13:54.735Z,1015.31
2022-07-28T02:14:28.066Z,1015.10
2022-07-28T02:14:56.591Z,1015.10
2022-07-28T02:15:31.219Z,1015.31
2022-07-28T02:15:58.527Z,1015.31
2022-07-28T02:16:29.263Z,1015.31
2022-07-28T02:17:05.071Z,1015.31
2022-07-28T02:17:31.368Z,1015.20
2022-07-28T02:18:02.271Z,1015.20
2022-07-28T02:18:33.394Z,1015.10
2022-07-28T02:19:04.386Z,1015.10
2022-07-28T02:19:35.570Z,1015.10
2022-07-28T02:20:06.412Z,1015.10
2022-07-28T02:20:37.348Z,1015.31
2022-07-28T02:21:10.712Z,1015.31
2022-07-28T02:21:39.386Z,1015.00
2022-07-28T02:22:10.271Z,1015.00
2022-07-28T02:22:41.492Z,1015.31
2022-07-28T02:23:12.739Z,1015.31
2022-07-28T02:23:42.983Z,1015.20
2022-07-28T02:24:17.489Z,1015.00
2022-07-28T02:24:45.422Z,1015.00
2022-07-28T02:25:16.825Z,1015.10
2022-07-28T02:25:47.426Z,1015.10
2022-07-28T02:26:18.098Z,1015.31
2022-07-28T02:26:49.788Z,1015.31
2022-07-28T02:27:20.027Z,1015.00
2022-07-28T02:27:51.765Z,1015.00
2022-07-28T02:28:23.064Z,1015.10
2022-07-28T02:28:52.976Z,1015.10
2022-07-28T02:29:49.201Z,1015.00
2022-07-28T02:29:55.307Z,1015.00
2022-07-28T02:30:27.153Z,1015.20
2022-07-28T02:30:57.441Z,1015.20
2022-07-28T02:31:28.444Z,1015.10
2022-07-28T02:32:02.308Z,1015.10
2022-07-28T02:32:30.736Z,1015.00
2022-07-28T02:33:01.316Z,1015.00
2022-07-28T02:33:59.037Z,1015.00
2022-07-28T02:34:07.159Z,1015.00
2022-07-28T02:34:33.969Z,1014.90
2022-07-28T02:35:06.184Z,1014.90
2022-07-28T02:35:37.603Z,1014.90
2022-07-28T02:36:07.622Z,1014.90
2022-07-28T02:36:40.736Z,1015.00
2022-07-28T02:37:09.267Z,1015.00
2022-07-28T02:37:43.307Z,1015.10
2022-07-28T02:38:11.784Z,1015.10
2022-07-28T02:38:42.550Z,1015.00
2022-07-28T02:39:13.661Z,1015.00
2022-07-28T02:39:44.787Z,1015.10
2022-07-28T02:40:16.311Z,1015.10
2022-07-28T02:40:49.187Z,1015.10
2022-07-28T02:41:17.310Z,1015.00
2022-07-28T02:41:48.612Z,1015.00
2022-07-28T02:42:19.342Z,1015.00
2022-07-28T02:42:50.300Z,1015.00
2022-07-28T02:43:21.567Z,1014.90
2022-07-28T02:43:52.582Z,1014.90
2022-07-28T02:44:23.222Z,1014.80
2022-07-28T02:44:54.588Z,1014.80
2022-07-28T02:45:26.500Z,1015.00
2022-07-28T02:45:56.552Z,1015.00
2022-07-28T02:46:27.688Z,1014.80
2022-07-28T02:46:58.746Z,1014.80
2022-07-28T02:47:29.905Z,1014.90
2022-07-28T02:48:00.421Z,1014.90
2022-07-28T02:48:31.785Z,1014.90
2022-07-28T02:49:03.780Z,1014.90
2022-07-28T02:49:35.146Z,1015.00
2022-07-28T02:50:05.324Z,1015.00
2022-07-28T02:50:36.831Z,1014.80
2022-07-28T02:51:06.385Z,1014.80
2022-07-28T02:51:37.625Z,1014.90
2022-07-28T02:52:08.552Z,1014.90
2022-07-28T02:52:40.508Z,1015.00
2022-07-28T02:53:14.809Z,1015.00
2022-07-28T02:53:41.988Z,1014.90
2022-07-28T02:54:12.736Z,1014.90
2022-07-28T02:54:43.301Z,1015.00
2022-07-28T02:55:14.895Z,1015.00
2022-07-28T02:55:45.732Z,1014.59
2022-07-28T02:56:16.785Z,1014.90
2022-07-28T02:56:53.813Z,1014.90
2022-07-28T02:57:18.662Z,1015.00
2022-07-28T02:57:53.260Z,1015.00
2022-07-28T02:58:20.934Z,1014.90
2022-07-28T02:58:51.787Z,1014.90
2022-07-28T02:59:22.113Z,1014.70
2022-07-28T02:59:54.541Z,1014.70
2022-07-28T03:00:25.488Z,1015.10
2022-07-28T03:00:56.792Z,1015.10
2022-07-28T03:01:26.696Z,1015.00
2022-07-28T03:01:57.906Z,1015.00
2022-07-28T03:02:28.992Z,1015.00
2022-07-28T03:02:59.587Z,1015.00
2022-07-28T03:03:31.233Z,1014.90
2022-07-28T03:04:04.374Z,1014.90
2022-07-28T03:04:32.631Z,1015.00
2022-07-28T03:05:11.247Z,1015.00
2022-07-28T03:05:34.742Z,1014.80
2022-07-28T03:06:05.413Z,1014.80
2022-07-28T03:06:36.325Z,1015.00
2022-07-28T03:07:07.426Z,1015.00
2022-07-28T03:07:45.762Z,1015.10
2022-07-28T03:08:09.988Z,1015.10
2022-07-28T03:08:41.006Z,1014.90
2022-07-28T03:09:11.507Z,1014.90
2022-07-28T03:09:42.981Z,1015.00
2022-07-28T03:10:13.986Z,1015.00
2022-07-28T03:10:44.655Z,1015.00
2022-07-28T03:11:15.902Z,1014.80
2022-07-28T03:11:46.782Z,1014.80
2022-07-28T03:12:17.733Z,1014.80
2022-07-28T03:12:48.646Z,1014.80
2022-07-28T03:13:22.543Z,1015.10
2022-07-28T03:13:53.541Z,1015.10
2022-07-28T03:14:22.144Z,1014.80
2022-07-28T03:14:52.212Z,1014.80
2022-07-28T03:15:25.229Z,1014.90
2022-07-28T03:15:55.068Z,1014.90
2022-07-28T03:16:25.486Z,1015.00
2022-07-28T03:16:56.754Z,1015.00
2022-07-28T03:17:27.788Z,1015.00
2022-07-28T03:17:58.736Z,1015.00
2022-07-28T03:18:29.430Z,1015.00
2022-07-28T03:19:01.195Z,1015.00
2022-07-28T03:19:31.190Z,1015.00
2022-07-28T03:20:02.826Z,1015.00
2022-07-28T03:20:33.213Z,1015.20
2022-07-28T03:21:04.853Z,1015.20
2022-07-28T03:21:35.213Z,1015.00
2022-07-28T03:22:06.572Z,1015.00
2022-07-28T03:22:37.941Z,1015.10
2022-07-28T03:23:08.214Z,1015.10
2022-07-28T03:23:39.628Z,1015.10
2022-07-28T03:24:11.069Z,1015.10
2022-07-28T03:24:41.745Z,1015.10
2022-07-28T03:25:12.893Z,1015.10
2022-07-28T03:25:43.212Z,1015.00
2022-07-28T03:26:17.102Z,1015.20
2022-07-28T03:26:45.621Z,1015.20
2022-07-28T03:27:19.471Z,1015.00
2022-07-28T03:27:47.413Z,1015.00
2022-07-28T03:28:19.746Z,1015.00
2022-07-28T03:28:52.543Z,1015.00
2022-07-28T03:29:20.983Z,1015.00
2022-07-28T03:29:51.541Z,1015.00
2022-07-28T03:30:24.041Z,1015.10
2022-07-28T03:30:53.608Z,1015.10
2022-07-28T03:31:24.986Z,1015.20
2022-07-28T03:31:57.325Z,1015.20
2022-07-28T03:32:29.901Z,1014.90
2022-07-28T03:32:57.695Z,1014.90
2022-07-28T03:33:28.702Z,1015.20
2022-07-28T03:33:59.549Z,1015.20
2022-07-28T03:34:30.425Z,1015.31
2022-07-28T03:35:01.907Z,1015.31
2022-07-28T03:35:32.621Z,1015.10
2022-07-28T03:36:03.266Z,1015.10
2022-07-28T03:36:34.765Z,1015.31
2022-07-28T03:37:05.747Z,1015.31
2022-07-28T03:37:37.014Z,1015.31
2022-07-28T03:38:13.244Z,1015.31
2022-07-28T03:38:39.269Z,1015.10
2022-07-28T03:39:09.622Z,1015.10
2022-07-28T03:39:40.587Z,1015.10
2022-07-28T03:40:11.806Z,1015.10
2022-07-28T03:40:46.220Z,1015.20
2022-07-28T03:41:13.471Z,1015.20
2022-07-28T03:41:44.472Z,1014.90
2022-07-28T03:42:15.504Z,1015.00
2022-07-28T03:42:46.555Z,1015.00
2022-07-28T03:43:17.526Z,1015.10
2022-07-28T03:43:48.653Z,1015.10
2022-07-28T03:44:27.920Z,1014.90
2022-07-28T03:44:50.832Z,1014.90
2022-07-28T03:45:22.502Z,1015.00
2022-07-28T03:45:52.560Z,1015.00
2022-07-28T03:46:23.793Z,1015.10
2022-07-28T03:46:54.662Z,1015.10
2022-07-28T03:47:25.553Z,1015.20
2022-07-28T03:47:56.633Z,1015.20
2022-07-28T03:48:27.514Z,1015.10
2022-07-28T03:48:58.550Z,1015.10
2022-07-28T03:49:29.953Z,1015.10
2022-07-28T03:50:01.302Z,1015.10
2022-07-28T03:50:32.694Z,1015.10
2022-07-28T03:51:02.825Z,1015.10
2022-07-28T03:51:37.026Z,1015.10
2022-07-28T03:52:05.061Z,1015.10
2022-07-28T03:52:36.213Z,1015.10
2022-07-28T03:53:06.815Z,1015.10
2022-07-28T03:53:40.653Z,1015.20
2022-07-28T03:54:08.885Z,1015.20
2022-07-28T03:54:39.871Z,1015.10
2022-07-28T03:55:12.266Z,1015.10
2022-07-28T03:55:41.734Z,1015.20
2022-07-28T03:56:12.831Z,1015.20
2022-07-28T03:56:44.133Z,1015.10
2022-07-28T03:57:14.826Z,1015.10
2022-07-28T03:57:46.426Z,1015.10
2022-07-28T03:58:17.132Z,1015.31
2022-07-28T03:58:47.894Z,1015.31
2022-07-28T03:59:19.073Z,1015.00
2022-07-28T03:59:50.165Z,1015.00
2022-07-28T04:00:22.217Z,1015.20
2022-07-28T04:00:52.074Z,1015.20
2022-07-28T04:01:23.004Z,1015.31
2022-07-28T04:01:53.986Z,1015.31
2022-07-28T04:02:27.942Z,1015.20
2022-07-28T04:02:56.920Z,1015.20
2022-07-28T04:03:42.244Z,1015.41
2022-07-28T04:03:58.112Z,1015.41
2022-07-28T04:04:29.227Z,1015.41
2022-07-28T04:04:59.983Z,1015.41
2022-07-28T04:05:31.345Z,1015.51
2022-07-28T04:06:04.710Z,1015.51
2022-07-28T04:06:33.181Z,1015.20
2022-07-28T04:07:04.207Z,1015.20
2022-07-28T04:07:35.302Z,1015.10
2022-07-28T04:08:06.701Z,1015.10
2022-07-28T04:08:39.354Z,1015.10
2022-07-28T04:09:08.013Z,1015.10
2022-07-28T04:09:38.849Z,1015.10
2022-07-28T04:10:13.438Z,1015.10
2022-07-28T04:10:40.983Z,1015.00
2022-07-28T04:11:14.461Z,1015.00
2022-07-28T04:11:43.614Z,1015.31
2022-07-28T04:12:14.022Z,1015.31
2022-07-28T04:12:50.426Z,1015.51
2022-07-28T04:13:15.766Z,1015.20
2022-07-28T04:13:46.503Z,1015.20
2022-07-28T04:14:18.226Z,1015.51
2022-07-28T04:14:48.507Z,1015.51
2022-07-28T04:15:22.270Z,1015.31
2022-07-28T04:15:50.821Z,1015.31
2022-07-28T04:16:22.342Z,1015.20
2022-07-28T04:16:56.261Z,1015.20
2022-07-28T04:17:23.988Z,1015.20
2022-07-28T04:17:54.949Z,1015.20
2022-07-28T04:18:25.734Z,1015.31
2022-07-28T04:18:56.754Z,1015.31
2022-07-28T04:19:28.192Z,1015.31
2022-07-28T04:19:59.093Z,1015.31
2022-07-28T04:20:30.833Z,1015.31
2022-07-28T04:21:01.016Z,1015.31
2022-07-28T04:21:32.707Z,1015.31
2022-07-28T04:22:03.062Z,1015.31
2022-07-28T04:22:33.547Z,1015.10
2022-07-28T04:23:07.492Z,1015.10
2022-07-28T04:23:35.621Z,1015.31
2022-07-28T04:24:09.906Z,1015.31
2022-07-28T04:24:40.231Z,1015.20
2022-07-28T04:25:10.507Z,1015.20
2022-07-28T04:25:42.688Z,1015.20
2022-07-28T04:26:12.192Z,1015.20
2022-07-28T04:26:41.813Z,1015.10
2022-07-28T04:27:13.013Z,1015.10
2022-07-28T04:27:43.854Z,1015.20
2022-07-28T04:28:17.470Z,1015.31
2022-07-28T04:28:46.867Z,1015.31
2022-07-28T04:29:23.510Z,1015.10
2022-07-28T04:29:47.778Z,1015.10
2022-07-28T04:30:19.813Z,1015.10
2022-07-28T04:30:49.618Z,1015.10
2022-07-28T04:31:21.405Z,1015.20
2022-07-28T04:31:51.909Z,1015.20
2022-07-28T04:32:22.677Z,1015.20
2022-07-28T04:32:53.704Z,1015.20
2022-07-28T04:33:28.182Z,1015.41
2022-07-28T04:33:56.093Z,1015.41
2022-07-28T04:34:27.824Z,1015.41
2022-07-28T04:34:58.053Z,1015.41
2022-07-28T04:35:36.381Z,1015.31
2022-07-28T04:35:59.946Z,1015.31
2022-07-28T04:36:30.707Z,1015.31
2022-07-28T04:37:01.771Z,1015.31
2022-07-28T04:37:32.989Z,1015.51
2022-07-28T04:38:04.212Z,1015.51
2022-07-28T04:38:35.351Z,1015.00
2022-07-28T04:39:06.190Z,1015.00
2022-07-28T04:39:37.343Z,1015.51
2022-07-28T04:40:08.263Z,1015.51
2022-07-28T04:40:39.023Z,1015.31
2022-07-28T04:41:10.095Z,1015.31
2022-07-28T04:41:41.025Z,1015.10
2022-07-28T04:42:15.267Z,1015.10
2022-07-28T04:42:43.232Z,1015.20
2022-07-28T04:43:14.381Z,1015.20
2022-07-28T04:43:45.328Z,1015.31
2022-07-28T04:44:15.972Z,1015.31
2022-07-28T04:44:48.588Z,1015.31
2022-07-28T04:45:22.507Z,1015.20
2022-07-28T04:45:54.055Z,1015.20
2022-07-28T04:46:20.320Z,1015.41
2022-07-28T04:46:50.974Z,1015.41
2022-07-28T04:47:22.207Z,1015.41
2022-07-28T04:47:52.931Z,1015.41
2022-07-28T04:48:23.685Z,1015.20
2022-07-28T04:48:55.221Z,1015.20
2022-07-28T04:49:26.028Z,1015.20
2022-07-28T04:49:57.373Z,1015.20
2022-07-28T04:50:28.945Z,1015.31
2022-07-28T04:50:58.622Z,1015.31
2022-07-28T04:51:32.693Z,1015.41
2022-07-28T04:52:00.894Z,1015.41
2022-07-28T04:52:32.174Z,1015.20
2022-07-28T04:53:02.991Z,1015.20
2022-07-28T04:53:37.582Z,1015.10
2022-07-28T04:54:05.070Z,1015.10
2022-07-28T04:54:35.672Z,1015.20
2022-07-28T04:55:07.245Z,1015.20
2022-07-28T04:55:41.427Z,1015.31
2022-07-28T04:56:08.907Z,1015.31
2022-07-28T04:56:39.623Z,1015.41
2022-07-28T04:57:12.821Z,1015.41
2022-07-28T04:57:41.908Z,1015.51
2022-07-28T04:58:12.902Z,1015.51
2022-07-28T04:58:44.069Z,1015.20
2022-07-28T04:59:15.309Z,1015.20
2022-07-28T04:59:48.405Z,1015.20
2022-07-28T05:00:17.524Z,1015.41
2022-07-28T05:00:50.184Z,1015.41
2022-07-28T05:01:20.375Z,1015.20
2022-07-28T05:01:52.422Z,1015.20
2022-07-28T05:02:21.101Z,1015.31
2022-07-28T05:02:51.878Z,1015.31
2022-07-28T05:03:26.510Z,1015.20
2022-07-28T05:03:54.267Z,1015.20
2022-07-28T05:04:25.218Z,1015.31
2022-07-28T05:04:56.335Z,1015.31
2022-07-28T05:05:27.926Z,1015.10
2022-07-28T05:05:59.535Z,1015.10
2022-07-28T05:06:29.261Z,1015.41
2022-07-28T05:07:00.653Z,1015.41
2022-07-28T05:07:31.234Z,1015.20
2022-07-28T05:08:04.943Z,1015.20
2022-07-28T05:08:33.195Z,1015.31
2022-07-28T05:09:04.260Z,1015.31
2022-07-28T05:09:36.182Z,1015.41
2022-07-28T05:10:06.501Z,1015.41
2022-07-28T05:10:37.359Z,1015.41
2022-07-28T05:11:07.827Z,1015.41
2022-07-28T05:11:39.204Z,1015.31
2022-07-28T05:12:10.271Z,1015.31
2022-07-28T05:12:41.414Z,1015.41
2022-07-28T05:13:12.227Z,1015.41
2022-07-28T05:13:43.446Z,1015.31
2022-07-28T05:14:14.814Z,1015.31
2022-07-28T05:14:45.093Z,1015.41
2022-07-28T05:15:17.225Z,1015.10
2022-07-28T05:15:46.758Z,1015.10
2022-07-28T05:16:21.233Z,1015.41
2022-07-28T05:16:52.077Z,1015.41
2022-07-28T05:17:20.374Z,1015.41
2022-07-28T05:17:51.303Z,1015.41
2022-07-28T05:18:22.226Z,1015.31
2022-07-28T05:18:53.174Z,1015.31
2022-07-28T05:19:24.383Z,1015.41
2022-07-28T05:19:55.213Z,1015.41
2022-07-28T05:20:27.462Z,1015.41
2022-07-28T05:20:59.534Z,1015.41
2022-07-28T05:21:31.063Z,1015.51
2022-07-28T05:21:59.511Z,1015.51
2022-07-28T05:22:33.106Z,1015.20
2022-07-28T05:23:01.431Z,1015.20
2022-07-28T05:23:32.141Z,1015.31
2022-07-28T05:24:03.045Z,1015.31
2022-07-28T05:24:34.177Z,1015.51
2022-07-28T05:25:05.509Z,1015.51
2022-07-28T05:25:36.195Z,1015.10
2022-07-28T05:26:07.350Z,1015.10
2022-07-28T05:26:41.270Z,1015.31
2022-07-28T05:27:09.213Z,1015.31
2022-07-28T05:27:40.388Z,1015.31
2022-07-28T05:28:11.333Z,1015.31
2022-07-28T05:28:42.013Z,1015.20
2022-07-28T05:29:13.013Z,1015.20
2022-07-28T05:29:47.967Z,1015.20
2022-07-28T05:30:18.903Z,1015.41
2022-07-28T05:30:46.026Z,1015.41
2022-07-28T05:31:16.841Z,1015.10
2022-07-28T05:31:48.434Z,1015.10
2022-07-28T05:32:19.334Z,1015.20
2022-07-28T05:32:50.030Z,1015.20
2022-07-28T05:33:21.302Z,1015.20
2022-07-28T05:33:52.364Z,1015.20
2022-07-28T05:34:23.347Z,1015.41
2022-07-28T05:34:54.806Z,1015.41
2022-07-28T05:35:25.712Z,1015.41
2022-07-28T05:35:56.186Z,1015.41
2022-07-28T05:36:29.747Z,1015.41
2022-07-28T05:36:58.342Z,1015.41
2022-07-28T05:37:29.935Z,1015.41
2022-07-28T05:38:00.607Z,1015.41
2022-07-28T05:38:37.623Z,1015.41
2022-07-28T05:39:02.693Z,1015.41
2022-07-28T05:39:33.245Z,1015.31
2022-07-28T05:40:04.787Z,1015.31
2022-07-28T05:40:35.504Z,1015.10
2022-07-28T05:41:06.215Z,1015.10
2022-07-28T05:41:36.974Z,1015.51
2022-07-28T05:42:08.392Z,1015.51
2022-07-28T05:42:39.307Z,1015.31
2022-07-28T05:43:10.024Z,1015.31
2022-07-28T05:43:41.533Z,1015.31
2022-07-28T05:44:12.487Z,1015.31
2022-07-28T05:44:49.328Z,1015.41
2022-07-28T05:45:17.062Z,1015.41
2022-07-28T05:45:48.414Z,1015.51
2022-07-28T05:46:16.451Z,1015.31
2022-07-28T05:46:47.345Z,1015.31
2022-07-28T05:47:18.474Z,1015.41
2022-07-28T05:47:49.413Z,1015.41
2022-07-28T05:48:20.316Z,1015.51
2022-07-28T05:48:54.696Z,1015.51
2022-07-28T05:49:25.523Z,1015.51
2022-07-28T05:49:53.413Z,1015.51
2022-07-28T05:50:27.787Z,1015.20
2022-07-28T05:50:55.630Z,1015.20
2022-07-28T05:51:26.783Z,1015.31
2022-07-28T05:51:57.525Z,1015.31
2022-07-28T05:52:28.652Z,1015.31
2022-07-28T05:52:59.832Z,1015.31
2022-07-28T05:53:30.624Z,1015.20
2022-07-28T05:54:02.023Z,1015.20
2022-07-28T05:54:32.433Z,1015.41
2022-07-28T05:55:04.342Z,1015.41
2022-07-28T05:55:34.749Z,1015.41
2022-07-28T05:56:05.666Z,1015.41
2022-07-28T05:56:37.246Z,1015.41
2022-07-28T05:57:10.148Z,1015.41
2022-07-28T05:57:41.349Z,1015.31
2022-07-28T05:58:09.632Z,1015.31
2022-07-28T05:58:39.978Z,1015.31
2022-07-28T05:59:11.334Z,1015.31
2022-07-28T05:59:42.645Z,1015.41
2022-07-28T06:00:14.318Z,1015.41
2022-07-28T06:00:50.242Z,1015.41
2022-07-28T06:01:15.045Z,1015.41
2022-07-28T06:01:46.530Z,1015.41
2022-07-28T06:02:17.638Z,1015.10
2022-07-28T06:02:49.709Z,1015.10
2022-07-28T06:03:20.472Z,1015.41
2022-07-28T06:04:09.999Z,1015.41
2022-07-28T06:04:27.725Z,1015.31
2022-07-28T06:04:55.285Z,1015.31
2022-07-28T06:05:23.473Z,1015.41
2022-07-28T06:05:59.137Z,1015.41
2022-07-28T06:06:27.634Z,1015.31
2022-07-28T06:06:56.648Z,1015.31
2022-07-28T06:07:43.400Z,1015.41
2022-07-28T06:07:58.614Z,1015.41
2022-07-28T06:08:29.509Z,1015.31
2022-07-28T06:09:01.413Z,1015.31
2022-07-28T06:09:31.574Z,1015.00
2022-07-28T06:10:03.542Z,1015.00
2022-07-28T06:10:33.381Z,1015.20
2022-07-28T06:11:04.752Z,1015.20
2022-07-28T06:11:35.027Z,1015.51
2022-07-28T06:12:05.995Z,1015.51
2022-07-28T06:12:37.534Z,1015.51
2022-07-28T06:13:08.421Z,1015.51
2022-07-28T06:13:39.874Z,1015.31
2022-07-28T06:14:10.759Z,1015.31
2022-07-28T06:14:41.067Z,1015.41